Airport View

Enter AWOS ICAO identifier for current METAR.

ex. KFNL

KMDZ 170935Z AUTO 17007KT 5SM HZ SCT065 BKN075 OVC090 M01/M03 A2996 RMK AO2 T10071034

17 Nov 2019 09:35

Frequency: 119.025

Phone: 715-678-6030

Other Area AWOS: KRRL - KMFI - KTKV - KAUW

TAF KAUW 170520Z 1706/1806 15008KT P6SM SCT020 BKN150 FM171000 17007KT P6SM BKN015 OVC070 FM171300 19007KT 1 1/2SM -SN OVC005 FM171800 21006KT 3SM -DZSN OVC008 FM180000 27004KT P6SM BKN007